Terminal Aerodrome Forecast
Issued by NWS

Home | Current Version | Previous Version | Text Only | Print | Product List | Glossary On
Versions: 1 2 3 4 5 6 7 8
000
FTUS46 KMTR 272300
TAFSTS
TAF
KSTS 272325Z 2800/2824 19003KT P6SM FEW250
     FM280400 00000KT P6SM BKN250
     FM282100 23005KT P6SM SCT250=

USA.gov is the U.S. government's official web portal to all federal, state and local government web resources and services.